Terminal Aerodrome Forecast
Issued by NWS

Home | Current Version | Previous Version | Text Only | Print | Product List | Glossary On
Versions: 1 2 3 4 5 6 7 8 9 10 11 12 13 14 15 16 17 18 19 20 21 22 23 24 25
000
FTPQ31 PGUM 272330
TAFGUM
TAF

TAF
PKMJ 272330Z 2800/2824 05015KT 6SM -RA SCT014 BKN045 OVC130
      TEMPO 2800/2802 05015G25KT 2SM +SHRA BKN012 OVC020
     FM280200 05015KT P6SM VCSH SCT016 SCT050 BKN130=

USA.gov is the U.S. government's official web portal to all federal, state and local government web resources and services.